Impacts TAF Board INFO
FOR SITUATIONAL AWARENESS. NOT TO BE USED FOR FLIGHT PLANNING PURPOSES.
IDs:

KFLL - Ft Lauderdale-Hollyw, FL, US

Issued at 0241 UTC 21 Feb 2017
Updated at 0509 UTC 21 Feb 2017
Potential Impact None Slight Moderate High
Time0453Z 21/06Z 21/07Z 21/08Z 21/09Z 21/10Z 21/11Z 21/12Z 21/13Z 21/14Z 21/15Z 21/16Z 21/17Z 21/18Z
Type OBS PRVL PRVL PRVL PRVL PRVL PRVL PRVL PRVL PRVL PRVL PRVL PRVL PRVL
VIS 10 >6 >6 >6 >6 >6 >6 >6 >6 >6 >6 >6 >6 >6
CIG -- -- -- -- -- -- -- -- -- -- -- -- -- --
Cover FEW SCT SCT SCT SCT SCT SCT SCT SCT SCT SCT SCT SCT SCT
FltCat VFR VFR VFR VFR VFR VFR VFR VFR VFR VFR VFR VFR VFR VFR
WX -- -- -- -- -- -- -- -- -- -- -- -- -- --
WDir 70 70 70 70 70 70 70 70 70 70 110 110 110 110
WSpd 7 5 5 5 5 5 5 5 5 5 10 10 10 10
WGst -- -- -- -- -- -- -- -- -- -- -- -- -- --

Raw TAF
KFLL 210241Z 2103/2124 07005KT P6SM FEW030 SCT250
  FM211500 11010KT P6SM SCT030 SCT250


Raw METAR
KFLL 210453Z 07007KT 10SM FEW020 22/14 A3007 RMK AO2 SLP181 T02220144 402720189
KFLL 210353Z 08007KT 10SM CLR 22/15 A3009 RMK AO2 SLP189 T02220150
KFLL 210253Z 08008KT 10SM FEW035 SCT250 23/16 A3010 RMK AO2 SLP191 T02280156 50000

METAR Board
Radar Display
Forecast Discussion

FOR SITUATIONAL AWARENESS. NOT TO BE USED FOR FLIGHT PLANNING PURPOSES.

Page loaded:  05:09 UTC  |   09:09 PM Pacific  |   10:09 PM Mountain  |   11:09 PM Central  |   12:09 AM Eastern

 

ADVISORIES

FORECASTS

FORECASTS

OBSERVATIONS

USER TOOLS

ABOUT US